Accueil
METAR-TAF:

METAR-TAF

Aéroports :

Morrisville, Vermont, États-Unis

Morrisville-Stowe State Airport

latitude: 44-32-10N, longitude: 072-36-58W, altitude: 223 m

Observation

Le bulletin a été fait il y a 37 minutes, à 01:54 UTC
Vent calme
Température -7°C
Humidité 86%
Pression 1039 hPa
Visibilité: 16.1 km
Ciel clair

METAR: KMVL 230154Z AUTO 00000KT 10SM CLR M07/M09 A3069 RMK AO2 SLP407 T10671089

Heure: 21:31 (02:31 UTC)


TAF: absent

Observations et prévisions météorologiques de plus de 4000 aéroports (messages METAR et TAF).

Les stations disponibles sont représentées par des disques jaunes et rouges sur la carte.

Passer la souris dessus pour voir le nom de la station.

Cliquer dessus pour voir les observations et prévisions météorologiques.

Pour changer de carte: cliquez sur les boutons verts avec une croix noire pour zoomer, sur le bouton vert avec un tiret pour effectuer un zoom arrière, ou sur les flèches vertes pour les cartes adjacentes.


METAR-TAF: